createdAt,value
2022-09-10T00:00:40.916Z,5.82
2022-09-10T00:03:10.497Z,5.97
2022-09-10T00:05:43.237Z,7.03
2022-09-10T00:08:15.881Z,4.85
2022-09-10T00:10:46.714Z,7.82
2022-09-10T00:13:17.494Z,6.05
2022-09-10T00:15:48.789Z,7.10
2022-09-10T00:18:20.296Z,8.50
2022-09-10T00:20:51.235Z,9.45
2022-09-10T00:23:26.677Z,5.55
2022-09-10T00:25:56.585Z,7.22
2022-09-10T00:28:28.028Z,7.38
2022-09-10T00:30:58.070Z,6.67
2022-09-10T00:33:29.134Z,9.30
2022-09-10T00:35:58.867Z,5.35
2022-09-10T00:38:31.500Z,9.43
2022-09-10T00:41:08.177Z,6.15
2022-09-10T00:43:54.554Z,7.18
2022-09-10T00:46:38.354Z,9.07
2022-09-10T00:49:15.630Z,7.35
2022-09-10T00:51:45.396Z,5.40
2022-09-10T00:54:17.953Z,6.97
2022-09-10T00:56:48.068Z,4.30
2022-09-10T00:59:20.309Z,5.68
2022-09-10T01:01:50.577Z,6.55
2022-09-10T01:04:20.552Z,5.03
2022-09-10T01:06:52.975Z,5.28
2022-09-10T01:09:26.611Z,4.28
2022-09-10T01:12:06.986Z,5.63
2022-09-10T01:15:05.358Z,4.93
2022-09-10T01:17:41.910Z,3.30
2022-09-10T01:20:53.822Z,5.82
2022-09-10T01:23:53.697Z,6.35
2022-09-10T01:26:45.446Z,8.40
2022-09-10T01:29:22.713Z,5.57
2022-09-10T01:31:56.467Z,7.17
2022-09-10T01:34:30.314Z,5.70
2022-09-10T01:37:04.157Z,7.15
2022-09-10T01:39:37.478Z,8.70
2022-09-10T01:42:07.549Z,5.70
2022-09-10T01:44:49.026Z,8.15
2022-09-10T01:47:41.923Z,6.97
2022-09-10T01:50:22.656Z,7.90
2022-09-10T01:53:05.182Z,9.65
2022-09-10T01:55:38.853Z,7.30
2022-09-10T01:58:19.935Z,5.70
2022-09-10T02:01:05.708Z,9.80
2022-09-10T02:03:37.534Z,6.63
2022-09-10T02:06:09.463Z,6.57
2022-09-10T02:08:42.989Z,13.55
2022-09-10T02:11:14.306Z,8.00
2022-09-10T02:13:48.420Z,9.40
2022-09-10T02:16:43.777Z,8.43
2022-09-10T02:19:15.025Z,8.15
2022-09-10T02:21:44.605Z,9.55
2022-09-10T02:24:15.259Z,6.90
2022-09-10T02:26:47.265Z,6.97
2022-09-10T02:29:19.283Z,11.98
2022-09-10T02:31:51.455Z,8.10
2022-09-10T02:34:21.764Z,7.25
2022-09-10T02:36:52.404Z,7.45
2022-09-10T02:39:22.337Z,7.80
2022-09-10T02:41:53.898Z,8.40
2022-09-10T02:44:27.193Z,7.35
2022-09-10T02:46:59.428Z,7.00
2022-09-10T02:49:29.183Z,7.57
2022-09-10T02:51:58.761Z,4.30
2022-09-10T02:54:28.694Z,7.00
2022-09-10T02:56:58.542Z,6.60
2022-09-10T02:59:29.037Z,5.45
2022-09-10T03:02:02.242Z,5.88
2022-09-10T03:04:31.906Z,6.30
2022-09-10T03:07:01.552Z,4.20
2022-09-10T03:09:31.424Z,5.72
2022-09-10T03:12:01.039Z,6.13
2022-09-10T03:14:31.186Z,11.27
2022-09-10T03:17:03.870Z,6.32
2022-09-10T03:19:34.033Z,7.22
2022-09-10T03:22:03.640Z,8.95
2022-09-10T03:24:35.802Z,8.83
2022-09-10T03:27:06.092Z,8.55
2022-09-10T03:29:36.297Z,8.07
2022-09-10T03:32:08.977Z,7.95
2022-09-10T03:34:39.946Z,12.00
2022-09-10T03:37:09.694Z,8.38
2022-09-10T03:39:39.478Z,11.33
2022-09-10T03:42:09.426Z,9.95
2022-09-10T03:44:39.094Z,11.13
2022-09-10T03:47:12.345Z,8.70
2022-09-10T03:49:42.758Z,12.25
2022-09-10T03:52:13.672Z,14.00
2022-09-10T03:54:45.555Z,12.32
2022-09-10T03:57:15.556Z,12.85
2022-09-10T03:59:46.108Z,13.45
2022-09-10T04:02:18.510Z,15.63
2022-09-10T04:04:49.246Z,18.38
2022-09-10T04:07:18.765Z,13.90
2022-09-10T04:09:48.315Z,14.00
2022-09-10T04:12:17.986Z,14.82
2022-09-10T04:14:47.710Z,14.40
2022-09-10T04:17:20.929Z,18.50
2022-09-10T04:19:52.344Z,14.77
2022-09-10T04:22:23.472Z,16.80
2022-09-10T04:24:53.734Z,14.60
2022-09-10T04:27:26.631Z,19.23
2022-09-10T04:29:57.372Z,20.27
2022-09-10T04:32:30.968Z,17.90
2022-09-10T04:35:03.006Z,17.25
2022-09-10T04:37:33.608Z,20.30
2022-09-10T04:40:05.191Z,18.90
2022-09-10T04:42:39.851Z,14.07
2022-09-10T04:45:11.552Z,13.32
2022-09-10T04:47:46.031Z,12.25
2022-09-10T04:50:17.089Z,16.20
2022-09-10T04:53:07.869Z,16.00
2022-09-10T04:55:39.488Z,17.95
2022-09-10T04:58:09.498Z,19.23
2022-09-10T05:00:39.377Z,16.13
2022-09-10T05:03:13.250Z,18.65
2022-09-10T05:05:46.030Z,19.00
2022-09-10T05:08:15.883Z,20.30
2022-09-10T05:10:53.362Z,21.20
2022-09-10T05:13:24.246Z,22.90
2022-09-10T05:15:54.478Z,21.33
2022-09-10T05:18:27.590Z,21.03
2022-09-10T05:20:57.729Z,20.17
2022-09-10T05:23:27.507Z,18.33
2022-09-10T05:25:57.723Z,30.38
2022-09-10T05:28:27.530Z,20.90
2022-09-10T05:30:58.106Z,20.63
2022-09-10T05:33:32.721Z,21.27
2022-09-10T05:36:02.877Z,19.33
2022-09-10T05:38:36.063Z,18.70
2022-09-10T05:41:08.110Z,22.60
2022-09-10T05:43:37.934Z,22.10
2022-09-10T05:46:08.234Z,19.88
2022-09-10T05:48:41.911Z,21.48
2022-09-10T05:51:13.453Z,16.95
2022-09-10T05:53:44.657Z,15.98
2022-09-10T05:56:14.411Z,16.67
2022-09-10T05:58:46.826Z,17.15
2022-09-10T06:01:17.481Z,20.25
2022-09-10T06:03:51.013Z,15.68
2022-09-10T06:06:21.254Z,24.00
2022-09-10T06:08:59.839Z,19.00
2022-09-10T06:11:50.261Z,17.95
2022-09-10T06:14:20.985Z,16.13
2022-09-10T06:16:53.578Z,17.73
2022-09-10T06:19:27.043Z,17.50
2022-09-10T06:21:58.242Z,27.00
2022-09-10T06:24:29.335Z,24.52
2022-09-10T06:26:59.989Z,25.33
2022-09-10T06:29:33.092Z,24.30
2022-09-10T06:32:02.712Z,28.60
2022-09-10T06:34:35.807Z,24.33
2022-09-10T06:37:07.148Z,20.07
2022-09-10T06:39:39.539Z,24.23
2022-09-10T06:42:10.072Z,19.50
2022-09-10T06:45:12.577Z,21.33
2022-09-10T06:50:58.468Z,14.52
2022-09-10T06:53:39.914Z,14.80
2022-09-10T06:56:15.138Z,16.30
2022-09-10T06:58:45.717Z,12.15
2022-09-10T07:01:19.058Z,20.20
2022-09-10T07:03:59.617Z,17.05
2022-09-10T07:06:35.298Z,16.75
2022-09-10T07:09:12.269Z,16.70
2022-09-10T07:11:51.455Z,18.17
2022-09-10T07:14:21.507Z,17.20
2022-09-10T07:16:53.435Z,18.55
2022-09-10T07:19:26.000Z,27.02
2022-09-10T07:21:58.233Z,15.20
2022-09-10T07:24:28.608Z,17.73
2022-09-10T07:27:07.569Z,16.42
2022-09-10T07:29:38.618Z,16.15
2022-09-10T07:32:13.784Z,14.63
2022-09-10T07:34:43.764Z,21.05
2022-09-10T07:37:18.259Z,18.05
2022-09-10T07:39:49.526Z,18.35
2022-09-10T07:42:20.529Z,17.60
2022-09-10T07:44:52.194Z,15.70
2022-09-10T07:47:22.080Z,16.52
2022-09-10T07:49:52.531Z,20.08
2022-09-10T07:52:24.697Z,15.07
2022-09-10T07:54:57.164Z,16.50
2022-09-10T07:57:27.167Z,15.52
2022-09-10T07:59:57.851Z,17.07
2022-09-10T08:02:28.206Z,19.25
2022-09-10T08:05:04.278Z,16.67
2022-09-10T08:07:38.296Z,17.77
2022-09-10T08:10:10.965Z,18.88
2022-09-10T08:12:43.608Z,14.98
2022-09-10T08:15:14.591Z,16.63
2022-09-10T08:17:44.995Z,15.43
2022-09-10T08:20:15.101Z,17.52
2022-09-10T08:22:51.472Z,16.55
2022-09-10T08:25:21.570Z,21.50
2022-09-10T08:27:51.508Z,18.95
2022-09-10T08:30:21.053Z,19.13
2022-09-10T08:32:51.536Z,17.40
2022-09-10T08:35:24.135Z,22.95
2022-09-10T08:37:56.506Z,19.77
2022-09-10T08:40:26.448Z,18.52
2022-09-10T08:42:56.346Z,17.65
2022-09-10T08:45:30.485Z,18.15
2022-09-10T08:48:05.910Z,16.90
2022-09-10T08:50:40.984Z,16.52
2022-09-10T08:53:25.961Z,17.45
2022-09-10T08:55:59.152Z,16.15
2022-09-10T08:58:31.571Z,15.43
2022-09-10T09:01:05.913Z,14.70
2022-09-10T09:03:39.752Z,13.57
2022-09-10T09:06:12.984Z,15.90
2022-09-10T09:08:51.849Z,21.00
2022-09-10T09:11:35.091Z,15.85
2022-09-10T09:14:25.499Z,18.85
2022-09-10T09:17:09.279Z,15.95
2022-09-10T09:19:47.101Z,13.32
2022-09-10T09:22:21.503Z,15.90
2022-09-10T09:24:59.283Z,16.00
2022-09-10T09:27:31.707Z,13.43
2022-09-10T09:30:04.749Z,14.93
2022-09-10T09:32:42.532Z,17.63
2022-09-10T09:35:25.374Z,17.90
2022-09-10T09:38:13.860Z,14.75
2022-09-10T09:40:49.700Z,16.55
2022-09-10T09:43:27.324Z,17.20
2022-09-10T09:45:57.471Z,14.10
2022-09-10T09:48:38.709Z,19.42
2022-09-10T09:51:11.685Z,19.53
2022-09-10T09:53:46.372Z,15.63
2022-09-10T09:56:25.219Z,19.45
2022-09-10T09:58:55.099Z,16.88
2022-09-10T10:01:26.424Z,17.10
2022-09-10T10:03:59.022Z,17.35
2022-09-10T10:06:31.319Z,16.15
2022-09-10T10:09:06.211Z,11.10
2022-09-10T10:11:51.061Z,14.77
2022-09-10T10:14:29.393Z,10.73
2022-09-10T10:17:01.074Z,11.83
2022-09-10T10:19:36.820Z,14.70
2022-09-10T10:22:22.198Z,14.85
2022-09-10T10:24:54.143Z,13.27
2022-09-10T10:27:32.861Z,13.85
2022-09-10T10:30:07.325Z,13.43
2022-09-10T10:32:44.796Z,9.60
2022-09-10T10:35:32.738Z,13.48
2022-09-10T10:38:31.970Z,16.58
2022-09-10T10:41:32.951Z,14.25
2022-09-10T10:44:24.103Z,15.35
2022-09-10T10:47:00.579Z,15.57
2022-09-10T10:49:39.406Z,12.55
2022-09-10T10:52:15.318Z,16.20
2022-09-10T10:54:56.814Z,18.75
2022-09-10T10:57:33.306Z,18.30
2022-09-10T11:00:09.353Z,17.17
2022-09-10T11:02:43.492Z,17.38
2022-09-10T11:05:22.266Z,17.17
2022-09-10T11:07:52.796Z,19.55
2022-09-10T11:10:26.036Z,17.10
2022-09-10T11:12:59.904Z,21.35
2022-09-10T11:15:37.141Z,19.58
2022-09-10T11:18:12.072Z,20.63
2022-09-10T11:20:45.282Z,15.52
2022-09-10T11:23:25.745Z,15.32
2022-09-10T11:25:59.624Z,16.38
2022-09-10T11:28:32.165Z,17.00
2022-09-10T11:31:09.868Z,19.55
2022-09-10T11:33:46.188Z,24.00
2022-09-10T11:36:24.740Z,25.40
2022-09-10T11:39:04.511Z,28.35
2022-09-10T11:41:34.498Z,26.55
2022-09-10T11:44:10.652Z,30.02
2022-09-10T11:46:46.163Z,32.50
2022-09-10T11:49:21.746Z,31.80
2022-09-10T11:51:51.977Z,28.25
2022-09-10T11:54:25.570Z,25.00
2022-09-10T11:57:00.156Z,26.58
2022-09-10T11:59:46.427Z,20.08
2022-09-10T12:02:41.567Z,23.00
2022-09-10T12:05:20.906Z,26.58
2022-09-10T12:07:54.428Z,24.48
2022-09-10T12:10:31.681Z,28.40
2022-09-10T12:13:01.494Z,28.90
2022-09-10T12:15:34.431Z,27.70
2022-09-10T12:18:11.213Z,30.58
2022-09-10T12:20:44.810Z,33.17
2022-09-10T12:23:18.720Z,34.22
2022-09-10T12:25:48.323Z,39.33
2022-09-10T12:28:56.385Z,39.97
2022-09-10T12:31:27.607Z,32.95
2022-09-10T12:34:21.379Z,34.72
2022-09-10T12:37:22.031Z,36.08
2022-09-10T12:39:52.255Z,36.43
2022-09-10T12:42:36.804Z,35.47
2022-09-10T12:45:06.888Z,39.93
2022-09-10T12:47:57.554Z,38.30
2022-09-10T12:50:38.575Z,36.05
2022-09-10T12:53:33.175Z,28.55
2022-09-10T12:56:04.514Z,33.93
2022-09-10T12:58:47.948Z,29.13
2022-09-10T13:01:24.158Z,31.30
2022-09-10T13:03:56.508Z,31.52
2022-09-10T13:06:42.703Z,33.65
2022-09-10T13:09:20.114Z,28.35
2022-09-10T13:11:52.300Z,27.17
2022-09-10T13:14:23.933Z,24.90
2022-09-10T13:16:55.371Z,32.92
2022-09-10T13:19:53.387Z,27.23
2022-09-10T13:23:04.401Z,32.95
2022-09-10T13:25:42.877Z,38.63
2022-09-10T13:28:45.133Z,31.45
2022-09-10T13:31:21.059Z,36.37
2022-09-10T13:34:02.937Z,31.67
2022-09-10T13:36:35.729Z,27.38
2022-09-10T13:39:20.147Z,27.30
2022-09-10T13:42:18.541Z,23.75
2022-09-10T13:45:17.198Z,29.00
2022-09-10T13:47:50.088Z,30.27
2022-09-10T13:50:22.887Z,30.67
2022-09-10T13:52:55.676Z,31.65
2022-09-10T13:55:29.766Z,28.92
2022-09-10T13:58:03.507Z,27.47
2022-09-10T14:00:37.231Z,32.85
2022-09-10T14:03:16.963Z,35.42
2022-09-10T14:05:50.076Z,31.27
2022-09-10T14:08:23.139Z,32.53
2022-09-10T14:10:57.304Z,32.95
2022-09-10T14:13:32.729Z,31.83
2022-09-10T14:16:04.580Z,28.58
2022-09-10T14:18:40.342Z,31.58
2022-09-10T14:21:09.973Z,33.97
2022-09-10T14:23:41.014Z,31.17
2022-09-10T14:26:15.367Z,30.40
2022-09-10T14:28:58.890Z,26.50
2022-09-10T14:31:35.153Z,35.37
2022-09-10T14:34:33.377Z,28.65
2022-09-10T14:37:03.556Z,25.17
2022-09-10T14:39:35.481Z,34.20
2022-09-10T14:42:13.869Z,30.17
2022-09-10T14:44:46.228Z,26.75
2022-09-10T14:47:23.618Z,34.50
2022-09-10T14:49:53.299Z,29.40
2022-09-10T14:52:23.476Z,33.15
2022-09-10T14:54:53.035Z,30.33
2022-09-10T14:57:23.239Z,29.65
2022-09-10T14:59:57.501Z,31.65
2022-09-10T15:02:29.058Z,30.83
2022-09-10T15:04:58.648Z,34.67
2022-09-10T15:07:28.588Z,37.80
2022-09-10T15:09:58.137Z,33.13
2022-09-10T15:12:29.198Z,37.17
2022-09-10T15:15:01.550Z,35.13
2022-09-10T15:17:31.096Z,40.45
2022-09-10T15:20:01.593Z,36.87
2022-09-10T15:22:32.831Z,38.75
2022-09-10T15:25:11.183Z,39.77
2022-09-10T15:27:41.811Z,37.58
2022-09-10T15:30:14.315Z,42.65
2022-09-10T15:32:45.914Z,42.72
2022-09-10T15:35:15.560Z,44.58
2022-09-10T15:37:45.128Z,42.00
2022-09-10T15:40:14.732Z,46.10
2022-09-10T15:42:44.314Z,38.80
2022-09-10T15:45:16.656Z,41.78
2022-09-10T15:47:46.200Z,39.47
2022-09-10T15:50:16.247Z,39.47
2022-09-10T15:52:45.980Z,39.33
2022-09-10T15:55:16.153Z,41.78
2022-09-10T15:57:45.663Z,34.58
2022-09-10T16:00:18.658Z,39.08
2022-09-10T16:02:53.065Z,37.37
2022-09-10T16:05:23.840Z,37.85
2022-09-10T16:07:53.415Z,35.85
2022-09-10T16:10:23.227Z,33.22
2022-09-10T16:12:53.335Z,32.65
2022-09-10T16:15:26.103Z,25.05
2022-09-10T16:17:56.379Z,28.25
2022-09-10T16:20:26.607Z,26.00
2022-09-10T16:22:58.275Z,26.02
2022-09-10T16:25:29.246Z,29.45
2022-09-10T16:27:59.103Z,26.55
2022-09-10T16:30:31.672Z,29.63
2022-09-10T16:33:01.267Z,26.37
2022-09-10T16:35:30.833Z,27.38
2022-09-10T16:38:01.115Z,25.00
2022-09-10T16:40:30.755Z,26.15
2022-09-10T16:43:00.344Z,30.52
2022-09-10T16:45:32.878Z,29.92
2022-09-10T16:48:04.396Z,28.80
2022-09-10T16:50:35.305Z,28.58
2022-09-10T16:53:08.978Z,31.17
2022-09-10T16:55:41.017Z,30.15
2022-09-10T16:58:10.704Z,22.75
2022-09-10T17:04:29.283Z,23.42
2022-09-10T17:06:59.183Z,22.88
2022-09-10T17:09:28.941Z,23.40
2022-09-10T17:11:58.461Z,23.85
2022-09-10T17:14:28.251Z,20.25
2022-09-10T17:16:58.594Z,18.77
2022-09-10T17:19:30.855Z,18.73
2022-09-10T17:22:00.489Z,16.90
2022-09-10T17:24:30.011Z,19.05
2022-09-10T17:26:59.679Z,18.88
2022-09-10T17:29:29.931Z,19.45
2022-09-10T17:31:59.932Z,20.67
2022-09-10T17:34:33.807Z,19.52
2022-09-10T17:37:03.418Z,19.53
2022-09-10T17:39:33.125Z,20.40
2022-09-10T17:42:02.682Z,18.00
2022-09-10T17:44:32.232Z,19.13
2022-09-10T17:47:01.780Z,23.02
2022-09-10T17:49:33.971Z,22.23
2022-09-10T17:52:04.614Z,20.02
2022-09-10T17:54:34.470Z,20.80
2022-09-10T17:57:04.137Z,18.65
2022-09-10T17:59:35.205Z,18.35
2022-09-10T18:02:05.133Z,21.05
2022-09-10T18:04:37.448Z,22.08
2022-09-10T18:07:07.103Z,25.15
2022-09-10T18:09:36.994Z,19.27
2022-09-10T18:12:06.860Z,17.50
2022-09-10T18:14:37.316Z,20.80
2022-09-10T18:17:07.179Z,23.40
2022-09-10T18:19:39.293Z,20.57
2022-09-10T18:22:08.859Z,20.60
2022-09-10T18:24:39.017Z,19.53
2022-09-10T18:27:08.595Z,26.60
2022-09-10T18:29:41.402Z,22.10
2022-09-10T18:32:11.051Z,22.63
2022-09-10T18:34:43.327Z,19.27
2022-09-10T18:37:13.820Z,21.10
2022-09-10T18:39:43.475Z,23.40
2022-09-10T18:42:13.784Z,24.27
2022-09-10T18:44:43.461Z,19.38
2022-09-10T18:47:34.303Z,23.73
2022-09-10T18:50:05.237Z,20.38
2022-09-10T18:52:35.814Z,22.50
2022-09-10T18:55:05.489Z,28.33
2022-09-10T18:57:35.050Z,24.15
2022-09-10T19:00:05.186Z,24.60
2022-09-10T19:02:34.819Z,31.40
2022-09-10T19:05:11.592Z,25.17
2022-09-10T19:07:41.783Z,26.43
2022-09-10T19:10:11.508Z,22.10
2022-09-10T19:12:42.059Z,22.63
2022-09-10T19:15:12.788Z,25.13
2022-09-10T19:17:42.366Z,24.33
2022-09-10T19:20:14.619Z,29.00
2022-09-10T19:22:44.220Z,24.25
2022-09-10T19:25:14.161Z,25.38
2022-09-10T19:27:45.158Z,27.45
2022-09-10T19:30:15.586Z,27.85
2022-09-10T19:32:45.115Z,25.40
2022-09-10T19:35:17.524Z,22.98
2022-09-10T19:37:48.205Z,30.73
2022-09-10T19:40:18.004Z,30.97
2022-09-10T19:42:47.557Z,29.05
2022-09-10T19:45:17.197Z,30.48
2022-09-10T19:47:47.064Z,31.48
2022-09-10T19:50:22.774Z,34.00
2022-09-10T19:52:53.667Z,30.25
2022-09-10T19:55:23.634Z,35.05
2022-09-10T19:57:54.187Z,39.03
2022-09-10T20:00:45.352Z,46.97
2022-09-10T20:03:13.737Z,46.45
2022-09-10T20:05:46.205Z,46.22
2022-09-10T20:08:15.787Z,45.22
2022-09-10T20:10:51.925Z,42.10
2022-09-10T20:13:21.614Z,42.47
2022-09-10T20:15:51.387Z,49.20
2022-09-10T20:18:21.209Z,55.30
2022-09-10T20:20:53.621Z,66.15
2022-09-10T20:23:23.244Z,68.88
2022-09-10T20:25:52.751Z,57.33
2022-09-10T20:28:22.266Z,50.92
2022-09-10T20:30:52.208Z,52.05
2022-09-10T20:33:22.341Z,46.65
2022-09-10T20:35:54.530Z,40.97
2022-09-10T20:38:24.119Z,37.15
2022-09-10T20:40:53.627Z,33.55
2022-09-10T20:43:23.229Z,33.43
2022-09-10T20:45:52.737Z,37.92
2022-09-10T20:48:22.283Z,34.45
2022-09-10T20:50:59.155Z,35.13
2022-09-10T20:53:28.979Z,32.90
2022-09-10T20:56:06.373Z,32.60
2022-09-10T20:58:37.318Z,34.93
2022-09-10T21:01:11.563Z,33.83
2022-09-10T21:03:42.006Z,35.30
2022-09-10T21:06:15.545Z,41.50
2022-09-10T21:08:45.484Z,44.93
2022-09-10T21:11:16.045Z,52.72
2022-09-10T21:13:47.504Z,37.88
2022-09-10T21:16:19.821Z,41.50
2022-09-10T21:18:54.383Z,49.90
2022-09-10T21:21:28.460Z,49.30
2022-09-10T21:23:59.591Z,35.73
2022-09-10T21:26:30.571Z,34.13
2022-09-10T21:29:02.160Z,40.75
2022-09-10T21:31:32.841Z,35.80
2022-09-10T21:34:03.774Z,43.15
2022-09-10T21:36:37.425Z,39.90
2022-09-10T21:39:09.818Z,39.55
2022-09-10T21:41:41.028Z,41.75
2022-09-10T21:44:14.233Z,42.92
2022-09-10T21:46:44.491Z,38.55
2022-09-10T21:49:14.122Z,52.53
2022-09-10T21:51:46.503Z,41.70
2022-09-10T21:54:18.686Z,49.30
2022-09-10T21:56:48.305Z,48.45
2022-09-10T21:59:18.180Z,48.45
2022-09-10T22:01:49.142Z,42.35
2022-09-10T22:04:22.848Z,38.70
2022-09-10T22:06:57.487Z,42.47
2022-09-10T22:09:27.085Z,42.78
2022-09-10T22:11:59.168Z,43.72
2022-09-10T22:14:28.977Z,45.42
2022-09-10T22:17:00.236Z,43.63
2022-09-10T22:19:30.000Z,41.45
2022-09-10T22:22:02.654Z,40.88
2022-09-10T22:24:32.201Z,42.27
2022-09-10T22:27:02.332Z,39.10
2022-09-10T22:29:31.920Z,40.20
2022-09-10T22:32:01.449Z,38.80
2022-09-10T22:34:30.972Z,38.17
2022-09-10T22:37:03.296Z,37.90
2022-09-10T22:39:36.806Z,40.95
2022-09-10T22:42:07.587Z,42.43
2022-09-10T22:44:37.252Z,42.97
2022-09-10T22:47:08.044Z,45.15
2022-09-10T22:49:37.614Z,44.05
2022-09-10T22:52:09.799Z,40.65
2022-09-10T22:54:39.433Z,41.13
2022-09-10T22:57:08.944Z,39.17
2022-09-10T22:59:38.487Z,39.35
2022-09-10T23:02:08.043Z,44.28
2022-09-10T23:04:37.607Z,37.55
2022-09-10T23:07:09.841Z,40.57
2022-09-10T23:09:39.360Z,38.28
2022-09-10T23:12:09.344Z,39.20
2022-09-10T23:14:39.314Z,39.43
2022-09-10T23:17:09.060Z,38.35
2022-09-10T23:19:38.650Z,41.73
2022-09-10T23:22:12.868Z,42.30
2022-09-10T23:24:42.401Z,38.22
2022-09-10T23:27:13.429Z,35.15
2022-09-10T23:29:43.158Z,37.67
2022-09-10T23:32:12.712Z,37.50
2022-09-10T23:34:42.905Z,42.13
2022-09-10T23:37:15.244Z,45.08
2022-09-10T23:39:44.839Z,53.47
2022-09-10T23:42:14.757Z,48.28
2022-09-10T23:44:44.248Z,52.23
2022-09-10T23:47:13.774Z,45.00
2022-09-10T23:49:43.952Z,42.30
2022-09-10T23:52:16.084Z,45.53
2022-09-10T23:54:45.631Z,48.50
2022-09-10T23:57:15.205Z,39.35
2022-09-10T23:59:44.816Z,40.55
